KCLM/CLM METAR and TAF weather

Enter ICAO airport designator
Station Type Date Time Source
KCLM METAR 2019/08/22 14:53 UTC NOAA

KCLM 221453Z AUTO 00000KT 10SM CLR 12/11 A3007 RMK AO2 SLP182 T01220111 53009


Station Type Date Time Source
KCLM Decoded METAR 2019/08/22 14:53 UTC NOAA

Station name not available
Aug 22, 2019 - 10:53 AM EDT / 2019.08.22 1453 UTC
Wind: Calm:0
Visibility: 10 mile(s):0
Sky conditions: clear
Temperature: 54.0 F (12.2 C)
Dew Point: 52.0 F (11.1 C)
Relative Humidity: 92%
Pressure (altimeter): 30.07 in. Hg (1018 hPa)
Pressure tendency: 0.03 inches (0.9 hPa) higher than three hours ago
ob: KCLM 221453Z AUTO 00000KT 10SM CLR 12/11 A3007 RMK AO2 SLP182 T01220111 53009
cycle: 15

Station Type Date Time Source
KCLM TAF 2019/08/22 12:22 UTC NOAA

TAF KCLM 221120Z 2212/2312 24003KT P6SM SCT040
FM221800 01006KT P6SM FEW050
FM230100 29006KT P6SM SCT250

Example: see airport list